createdAt,value
2017-05-20T00:00:40.148Z,995.65
2017-05-20T00:01:40.177Z,995.64
2017-05-20T00:02:40.203Z,995.68
2017-05-20T00:03:40.231Z,995.64
2017-05-20T00:04:40.260Z,995.64
2017-05-20T00:05:40.284Z,995.68
2017-05-20T00:06:40.312Z,995.69
2017-05-20T00:07:40.338Z,995.65
2017-05-20T00:08:40.366Z,995.66
2017-05-20T00:09:40.389Z,995.68
2017-05-20T00:10:40.418Z,995.69
2017-05-20T00:11:40.450Z,995.69
2017-05-20T00:12:40.472Z,995.7
2017-05-20T00:13:40.501Z,995.71
2017-05-20T00:14:40.535Z,995.67
2017-05-20T00:15:40.554Z,995.76
2017-05-20T00:16:40.585Z,995.71
2017-05-20T00:17:40.609Z,995.75
2017-05-20T00:18:40.638Z,995.72
2017-05-20T00:19:40.662Z,995.73
2017-05-20T00:20:40.692Z,995.75
2017-05-20T00:21:40.716Z,995.82
2017-05-20T00:22:40.745Z,995.79
2017-05-20T00:23:40.773Z,995.77
2017-05-20T00:24:40.798Z,995.78
2017-05-20T00:25:40.827Z,995.75
2017-05-20T00:26:40.854Z,995.75
2017-05-20T00:27:40.885Z,995.76
2017-05-20T00:28:40.909Z,995.75
2017-05-20T00:29:40.935Z,995.81
2017-05-20T00:30:40.959Z,995.77
2017-05-20T00:31:40.988Z,995.77
2017-05-20T00:32:41.016Z,995.76
2017-05-20T00:33:41.043Z,995.77
2017-05-20T00:34:41.072Z,995.74
2017-05-20T00:35:41.100Z,995.77
2017-05-20T00:36:41.124Z,995.74
2017-05-20T00:37:41.153Z,995.68
2017-05-20T00:38:41.376Z,995.71
2017-05-20T00:39:41.206Z,995.68
2017-05-20T00:40:41.231Z,995.68
2017-05-20T00:41:41.260Z,995.71
2017-05-20T00:42:41.285Z,995.71
2017-05-20T00:43:41.512Z,995.67
2017-05-20T00:44:41.339Z,995.66
2017-05-20T00:45:41.365Z,995.71
2017-05-20T00:46:41.395Z,995.71
2017-05-20T00:47:41.419Z,995.68
2017-05-20T00:48:41.651Z,995.69
2017-05-20T00:49:41.473Z,995.68
2017-05-20T00:50:41.502Z,995.65
2017-05-20T00:51:41.531Z,995.67
2017-05-20T00:52:41.552Z,995.63
2017-05-20T00:53:41.833Z,995.63
2017-05-20T00:54:41.606Z,995.62
2017-05-20T00:55:41.637Z,995.68
2017-05-20T00:56:41.663Z,995.63
2017-05-20T00:57:41.696Z,995.67
2017-05-20T00:58:41.918Z,995.67
2017-05-20T00:59:41.746Z,995.65
2017-05-20T01:00:41.775Z,995.63
2017-05-20T01:01:41.798Z,995.66
2017-05-20T01:02:41.827Z,995.67
2017-05-20T01:03:42.105Z,995.67
2017-05-20T01:04:41.878Z,995.59
2017-05-20T01:05:41.906Z,995.58
2017-05-20T01:06:41.935Z,995.58
2017-05-20T01:07:41.958Z,995.58
2017-05-20T01:08:42.186Z,995.61
2017-05-20T01:09:42.012Z,995.56
2017-05-20T01:10:42.042Z,995.55
2017-05-20T01:11:42.069Z,995.54
2017-05-20T01:12:42.096Z,995.59
2017-05-20T01:13:42.324Z,995.6
2017-05-20T01:14:42.151Z,995.53
2017-05-20T01:15:42.180Z,995.52
2017-05-20T01:16:42.206Z,995.51
2017-05-20T01:17:42.232Z,995.58
2017-05-20T01:18:42.459Z,995.55
2017-05-20T01:19:42.290Z,995.53
2017-05-20T01:20:42.313Z,995.59
2017-05-20T01:21:42.343Z,995.64
2017-05-20T01:22:42.368Z,995.68
2017-05-20T01:23:42.597Z,995.69
2017-05-20T01:24:42.427Z,995.66
2017-05-20T01:25:42.449Z,995.64
2017-05-20T01:26:42.479Z,995.69
2017-05-20T01:27:42.505Z,995.69
2017-05-20T01:28:42.729Z,995.77
2017-05-20T01:29:42.556Z,995.71
2017-05-20T01:30:42.582Z,995.76
2017-05-20T01:31:42.613Z,995.67
2017-05-20T01:32:42.640Z,995.64
2017-05-20T01:33:42.869Z,995.62
2017-05-20T01:34:42.693Z,995.7
2017-05-20T01:35:42.722Z,995.72
2017-05-20T01:36:42.746Z,995.74
2017-05-20T01:37:42.772Z,995.73
2017-05-20T01:38:43.004Z,995.71
2017-05-20T01:39:42.828Z,995.72
2017-05-20T01:40:42.853Z,995.7
2017-05-20T01:41:42.883Z,995.71
2017-05-20T01:42:42.911Z,995.74
2017-05-20T01:43:42.936Z,995.74
2017-05-20T01:44:42.965Z,995.78
2017-05-20T01:45:42.994Z,995.75
2017-05-20T01:46:43.018Z,995.76
2017-05-20T01:47:43.046Z,995.77
2017-05-20T01:48:43.076Z,995.82
2017-05-20T01:49:43.100Z,995.79
2017-05-20T01:50:43.128Z,995.77
2017-05-20T01:51:43.155Z,995.8
2017-05-20T01:52:43.182Z,995.77
2017-05-20T01:53:43.211Z,995.8
2017-05-20T01:54:43.237Z,995.8
2017-05-20T01:55:43.265Z,995.76
2017-05-20T01:56:43.289Z,995.78
2017-05-20T01:57:43.319Z,995.78
2017-05-20T01:58:43.343Z,995.79
2017-05-20T01:59:43.372Z,995.81
2017-05-20T02:00:43.401Z,995.78
2017-05-20T02:01:43.425Z,995.79
2017-05-20T02:02:43.454Z,995.74
2017-05-20T02:03:43.479Z,995.78
2017-05-20T02:04:43.508Z,995.73
2017-05-20T02:05:43.533Z,995.75
2017-05-20T02:06:43.557Z,995.82
2017-05-20T02:07:43.590Z,995.85
2017-05-20T02:08:43.615Z,995.85
2017-05-20T02:09:43.644Z,995.83
2017-05-20T02:10:43.667Z,995.85
2017-05-20T02:11:43.694Z,995.84
2017-05-20T02:12:43.723Z,995.86
2017-05-20T02:13:43.751Z,995.88
2017-05-20T02:14:43.781Z,995.88
2017-05-20T02:15:43.804Z,995.89
2017-05-20T02:16:43.833Z,995.94
2017-05-20T02:17:43.858Z,995.92
2017-05-20T02:18:43.890Z,995.94
2017-05-20T02:19:43.911Z,995.93
2017-05-20T02:20:43.940Z,995.92
2017-05-20T02:21:43.965Z,995.88
2017-05-20T02:22:43.995Z,995.93
2017-05-20T02:23:44.023Z,995.91
2017-05-20T02:24:44.048Z,995.9
2017-05-20T02:25:44.076Z,995.89
2017-05-20T02:26:44.104Z,995.87
2017-05-20T02:27:44.130Z,995.85
2017-05-20T02:28:44.160Z,995.87
2017-05-20T02:29:44.183Z,995.87
2017-05-20T02:30:44.211Z,995.86
2017-05-20T02:31:44.236Z,995.85
2017-05-20T02:32:44.266Z,995.88
2017-05-20T02:33:44.295Z,995.87
2017-05-20T02:34:44.319Z,995.82
2017-05-20T02:35:44.348Z,995.86
2017-05-20T02:36:44.373Z,995.82
2017-05-20T02:37:44.402Z,995.86
2017-05-20T02:38:44.427Z,995.81
2017-05-20T02:39:44.454Z,995.78
2017-05-20T02:40:44.479Z,995.77
2017-05-20T02:41:44.508Z,995.74
2017-05-20T02:42:44.537Z,995.76
2017-05-20T02:43:44.558Z,995.77
2017-05-20T02:44:44.590Z,995.81
2017-05-20T02:45:44.615Z,995.73
2017-05-20T02:46:44.645Z,995.8
2017-05-20T02:47:44.669Z,995.81
2017-05-20T02:48:44.697Z,995.79
2017-05-20T02:49:44.726Z,995.77
2017-05-20T02:50:44.751Z,995.78
2017-05-20T02:51:44.779Z,995.78
2017-05-20T02:52:44.800Z,995.82
2017-05-20T02:53:44.835Z,995.84
2017-05-20T02:54:44.864Z,995.88
2017-05-20T02:55:44.887Z,995.84
2017-05-20T02:56:44.915Z,995.86
2017-05-20T02:57:44.942Z,995.88
2017-05-20T02:58:44.970Z,995.89
2017-05-20T02:59:44.999Z,995.91
2017-05-20T03:00:45.023Z,995.9
2017-05-20T03:01:45.052Z,995.93
2017-05-20T03:02:45.076Z,995.99
2017-05-20T03:03:45.100Z,995.95
2017-05-20T03:04:45.132Z,995.9
2017-05-20T03:05:45.158Z,995.92
2017-05-20T03:06:45.187Z,995.9
2017-05-20T03:07:45.212Z,995.9
2017-05-20T03:08:45.243Z,995.95
2017-05-20T03:09:45.267Z,995.9
2017-05-20T03:10:45.295Z,995.91
2017-05-20T03:11:45.320Z,995.94
2017-05-20T03:12:45.348Z,995.91
2017-05-20T03:13:45.370Z,995.91
2017-05-20T03:14:45.402Z,995.86
2017-05-20T03:15:45.429Z,995.91
2017-05-20T03:16:45.456Z,995.91
2017-05-20T03:17:45.484Z,995.9
2017-05-20T03:18:45.504Z,995.94
2017-05-20T03:19:45.538Z,995.93
2017-05-20T03:20:45.566Z,995.98
2017-05-20T03:21:45.591Z,995.97
2017-05-20T03:22:45.619Z,996.05
2017-05-20T03:23:45.646Z,996.09
2017-05-20T03:24:45.674Z,996.06
2017-05-20T03:25:45.697Z,996.13
2017-05-20T03:26:45.727Z,996.08
2017-05-20T03:27:45.755Z,996.1
2017-05-20T03:28:45.776Z,996.14
2017-05-20T03:29:45.809Z,996.09
2017-05-20T03:30:45.834Z,996.15
2017-05-20T03:31:45.893Z,996.14
2017-05-20T03:32:45.889Z,996.13
2017-05-20T03:33:45.918Z,996.11
2017-05-20T03:34:45.945Z,996.11
2017-05-20T03:35:45.969Z,996.16
2017-05-20T03:36:45.999Z,996.16
2017-05-20T03:37:46.023Z,996.1
2017-05-20T03:38:46.053Z,996.16
2017-05-20T03:39:46.082Z,996.2
2017-05-20T03:40:46.106Z,996.21
2017-05-20T03:41:46.136Z,996.19
2017-05-20T03:42:46.160Z,996.26
2017-05-20T03:43:46.188Z,996.24
2017-05-20T03:44:46.214Z,996.23
2017-05-20T03:45:46.241Z,996.29
2017-05-20T03:46:46.272Z,996.28
2017-05-20T03:47:46.296Z,996.29
2017-05-20T03:48:46.328Z,996.34
2017-05-20T03:49:46.600Z,996.36
2017-05-20T03:50:46.379Z,996.39
2017-05-20T03:51:46.406Z,996.35
2017-05-20T03:52:46.427Z,996.31
2017-05-20T03:53:46.456Z,996.31
2017-05-20T03:54:46.681Z,996.35
2017-05-20T03:55:46.510Z,996.36
2017-05-20T03:56:46.538Z,996.43
2017-05-20T03:57:46.567Z,996.45
2017-05-20T03:58:46.593Z,996.43
2017-05-20T03:59:46.822Z,996.45
2017-05-20T04:00:46.648Z,996.46
2017-05-20T04:01:46.673Z,996.51
2017-05-20T04:02:46.699Z,996.53
2017-05-20T04:03:46.727Z,996.53
2017-05-20T04:04:46.956Z,996.52
2017-05-20T04:05:46.781Z,996.5
2017-05-20T04:06:46.805Z,996.5
2017-05-20T04:07:46.833Z,996.54
2017-05-20T04:08:46.862Z,996.54
2017-05-20T04:09:47.089Z,996.52
2017-05-20T04:10:46.919Z,996.49
2017-05-20T04:11:46.940Z,996.5
2017-05-20T04:12:46.969Z,996.5
2017-05-20T04:13:46.997Z,996.5
2017-05-20T04:14:47.225Z,996.52
2017-05-20T04:15:47.049Z,996.53
2017-05-20T04:16:47.077Z,996.53
2017-05-20T04:17:47.102Z,996.55
2017-05-20T04:18:47.132Z,996.58
2017-05-20T04:19:47.361Z,996.54
2017-05-20T04:20:47.182Z,996.55
2017-05-20T04:21:47.213Z,996.54
2017-05-20T04:22:47.239Z,996.56
2017-05-20T04:23:47.267Z,996.59
2017-05-20T04:24:47.492Z,996.55
2017-05-20T04:25:47.318Z,996.55
2017-05-20T04:26:47.346Z,996.59
2017-05-20T04:27:47.375Z,996.59
2017-05-20T04:28:47.399Z,996.61
2017-05-20T04:29:47.627Z,996.61
2017-05-20T04:30:47.459Z,996.64
2017-05-20T04:31:47.481Z,996.65
2017-05-20T04:32:47.507Z,996.64
2017-05-20T04:33:47.537Z,996.69
2017-05-20T04:34:47.815Z,996.7
2017-05-20T04:35:47.588Z,996.7
2017-05-20T04:36:47.618Z,996.7
2017-05-20T04:37:47.646Z,996.73
2017-05-20T04:38:47.671Z,996.7
2017-05-20T04:39:47.948Z,996.73
2017-05-20T04:40:47.724Z,996.7
2017-05-20T04:41:47.753Z,996.68
2017-05-20T04:42:47.778Z,996.67
2017-05-20T04:43:47.805Z,996.71
2017-05-20T04:44:48.083Z,996.73
2017-05-20T04:45:47.861Z,996.71
2017-05-20T04:46:47.885Z,996.69
2017-05-20T04:47:47.914Z,996.75
2017-05-20T04:48:47.939Z,996.7
2017-05-20T04:49:47.964Z,996.76
2017-05-20T04:50:47.992Z,996.74
2017-05-20T04:51:48.023Z,996.71
2017-05-20T04:52:48.046Z,996.71
2017-05-20T04:53:48.075Z,996.73
2017-05-20T04:54:48.100Z,996.73
2017-05-20T04:55:48.128Z,996.74
2017-05-20T04:56:48.156Z,996.73
2017-05-20T04:57:48.181Z,996.77
2017-05-20T04:58:48.211Z,996.77
2017-05-20T04:59:48.239Z,996.78
2017-05-20T05:00:48.259Z,996.75
2017-05-20T05:01:48.289Z,996.77
2017-05-20T05:02:48.318Z,996.75
2017-05-20T05:03:48.347Z,996.77
2017-05-20T05:04:48.372Z,996.75
2017-05-20T05:05:48.400Z,996.82
2017-05-20T05:06:48.429Z,996.85
2017-05-20T05:07:48.453Z,996.86
2017-05-20T05:08:48.482Z,996.88
2017-05-20T05:09:48.506Z,996.9
2017-05-20T05:10:48.539Z,996.98
2017-05-20T05:11:48.561Z,996.99
2017-05-20T05:12:48.590Z,996.97
2017-05-20T05:13:48.614Z,996.99
2017-05-20T05:14:48.643Z,997.04
2017-05-20T05:15:48.668Z,997.05
2017-05-20T05:16:48.697Z,997.07
2017-05-20T05:17:48.722Z,997.08
2017-05-20T05:18:48.750Z,997.04
2017-05-20T05:19:48.777Z,997.04
2017-05-20T05:20:48.800Z,997.09
2017-05-20T05:21:48.829Z,997.12
2017-05-20T05:22:48.852Z,997.06
2017-05-20T05:23:48.886Z,997.09
2017-05-20T05:24:48.912Z,997.05
2017-05-20T05:25:48.940Z,997.13
2017-05-20T05:26:48.964Z,997.09
2017-05-20T05:27:48.996Z,997.12
2017-05-20T05:28:49.021Z,997.06
2017-05-20T05:29:49.047Z,997.06
2017-05-20T05:30:49.071Z,997.11
2017-05-20T05:31:49.100Z,997.12
2017-05-20T05:32:49.123Z,997.13
2017-05-20T05:33:49.153Z,997.15
2017-05-20T05:34:49.181Z,997.12
2017-05-20T05:35:49.206Z,997.15
2017-05-20T05:36:49.236Z,997.14
2017-05-20T05:37:49.260Z,997.19
2017-05-20T05:38:49.289Z,997.2
2017-05-20T05:39:49.318Z,997.23
2017-05-20T05:40:49.342Z,997.27
2017-05-20T05:41:49.372Z,997.31
2017-05-20T05:42:49.397Z,997.35
2017-05-20T05:43:49.423Z,997.38
2017-05-20T05:44:49.450Z,997.39
2017-05-20T05:45:49.478Z,997.38
2017-05-20T05:46:49.510Z,997.37
2017-05-20T05:47:49.532Z,997.38
2017-05-20T05:48:49.560Z,997.41
2017-05-20T05:49:49.586Z,997.44
2017-05-20T05:50:49.614Z,997.43
2017-05-20T05:51:49.639Z,997.42
2017-05-20T05:52:49.668Z,997.44
2017-05-20T05:53:49.696Z,997.48
2017-05-20T05:54:49.722Z,997.46
2017-05-20T05:55:49.746Z,997.52
2017-05-20T05:56:49.776Z,997.53
2017-05-20T05:57:49.805Z,997.56
2017-05-20T05:58:49.828Z,997.52
2017-05-20T05:59:49.858Z,997.57
2017-05-20T06:00:49.883Z,997.56
2017-05-20T06:01:49.910Z,997.55
2017-05-20T06:02:49.936Z,997.58
2017-05-20T06:03:49.960Z,997.6
2017-05-20T06:04:49.993Z,997.64
2017-05-20T06:05:50.017Z,997.66
2017-05-20T06:06:50.046Z,997.69
2017-05-20T06:07:50.072Z,997.7
2017-05-20T06:08:50.100Z,997.74
2017-05-20T06:09:50.124Z,997.72
2017-05-20T06:10:50.352Z,997.74
2017-05-20T06:11:50.178Z,997.75
2017-05-20T06:12:50.206Z,997.8
2017-05-20T06:13:50.231Z,997.82
2017-05-20T06:14:50.257Z,997.85
2017-05-20T06:15:50.485Z,997.85
2017-05-20T06:16:50.315Z,997.87
2017-05-20T06:17:50.343Z,997.92
2017-05-20T06:18:50.367Z,997.86
2017-05-20T06:19:50.396Z,997.9
2017-05-20T06:20:50.677Z,997.94
2017-05-20T06:21:50.451Z,997.93
2017-05-20T06:22:50.479Z,997.91
2017-05-20T06:23:50.504Z,997.89
2017-05-20T06:24:50.532Z,997.94
2017-05-20T06:25:50.757Z,997.95
2017-05-20T06:26:50.586Z,997.99
2017-05-20T06:27:50.614Z,998.03
2017-05-20T06:28:50.640Z,998.05
2017-05-20T06:29:50.664Z,998.04
2017-05-20T06:30:50.892Z,998.09
2017-05-20T06:31:50.717Z,998.06
2017-05-20T06:32:50.751Z,998.06
2017-05-20T06:33:50.775Z,998.03
2017-05-20T06:34:50.809Z,998.04
2017-05-20T06:35:51.025Z,998.02
2017-05-20T06:36:50.858Z,998.1
2017-05-20T06:37:50.883Z,998.09
2017-05-20T06:38:50.911Z,998.08
2017-05-20T06:39:50.935Z,998.12
2017-05-20T06:40:51.165Z,998.16
2017-05-20T06:41:50.994Z,998.2
2017-05-20T06:42:51.018Z,998.2
2017-05-20T06:43:51.047Z,998.25
2017-05-20T06:44:51.073Z,998.31
2017-05-20T06:45:51.298Z,998.28
2017-05-20T06:46:51.127Z,998.3
2017-05-20T06:47:51.154Z,998.29
2017-05-20T06:48:51.183Z,998.33
2017-05-20T06:49:51.200Z,998.35
2017-05-20T06:50:51.435Z,998.38
2017-05-20T06:51:51.260Z,998.38
2017-05-20T06:52:51.290Z,998.4
2017-05-20T06:53:51.317Z,998.42
2017-05-20T06:54:51.342Z,998.4
2017-05-20T06:55:51.572Z,998.42
2017-05-20T06:56:51.395Z,998.43
2017-05-20T06:57:51.426Z,998.45
2017-05-20T06:58:51.450Z,998.47
2017-05-20T06:59:51.477Z,998.43
2017-05-20T07:00:51.759Z,998.47
2017-05-20T07:01:51.533Z,998.45
2017-05-20T07:02:51.562Z,998.44
2017-05-20T07:03:51.586Z,998.46
2017-05-20T07:04:51.615Z,998.47
2017-05-20T07:05:51.840Z,998.47
2017-05-20T07:06:51.666Z,998.5
2017-05-20T07:07:51.699Z,998.47
2017-05-20T07:08:51.723Z,998.46
2017-05-20T07:09:51.751Z,998.44
2017-05-20T07:10:51.976Z,998.43
2017-05-20T07:11:51.804Z,998.4
2017-05-20T07:12:51.832Z,998.44
2017-05-20T07:13:51.858Z,998.43
2017-05-20T07:14:51.884Z,998.4
2017-05-20T07:15:52.111Z,998.42
2017-05-20T07:16:51.944Z,998.42
2017-05-20T07:17:51.965Z,998.46
2017-05-20T07:18:51.995Z,998.46
2017-05-20T07:19:52.020Z,998.5
2017-05-20T07:20:52.048Z,998.5
2017-05-20T07:21:52.072Z,998.5
2017-05-20T07:22:52.102Z,998.52
2017-05-20T07:23:52.130Z,998.54
2017-05-20T07:24:52.155Z,998.49
2017-05-20T07:25:52.183Z,998.52
2017-05-20T07:26:52.210Z,998.54
2017-05-20T07:27:52.237Z,998.54
2017-05-20T07:28:52.265Z,998.56
2017-05-20T07:29:52.290Z,998.54
2017-05-20T07:30:52.322Z,998.59
2017-05-20T07:31:52.343Z,998.54
2017-05-20T07:32:52.375Z,998.57
2017-05-20T07:33:52.401Z,998.59
2017-05-20T07:34:52.425Z,998.58
2017-05-20T07:35:52.455Z,998.63
2017-05-20T07:36:52.479Z,998.6
2017-05-20T07:37:52.508Z,998.64
2017-05-20T07:38:52.533Z,998.65
2017-05-20T07:39:52.563Z,998.67
2017-05-20T07:40:52.591Z,998.66
2017-05-20T07:41:52.615Z,998.61
2017-05-20T07:42:52.643Z,998.63
2017-05-20T07:43:52.669Z,998.62
2017-05-20T07:44:52.698Z,998.64
2017-05-20T07:45:52.721Z,998.67
2017-05-20T07:46:52.747Z,998.67
2017-05-20T07:47:52.781Z,998.69
2017-05-20T07:48:52.805Z,998.67
2017-05-20T07:49:52.834Z,998.66
2017-05-20T07:50:52.863Z,998.69
2017-05-20T07:51:52.883Z,998.67
2017-05-20T07:52:52.917Z,998.64
2017-05-20T07:53:52.941Z,998.7
2017-05-20T07:54:52.971Z,998.65
2017-05-20T07:55:52.998Z,998.7
2017-05-20T07:56:53.085Z,998.68
2017-05-20T07:57:53.052Z,998.7
2017-05-20T07:58:53.078Z,998.71
2017-05-20T07:59:53.107Z,998.73
2017-05-20T08:00:53.135Z,998.68
2017-05-20T08:01:53.159Z,998.72
2017-05-20T08:02:53.188Z,998.7
2017-05-20T08:03:53.212Z,998.7
2017-05-20T08:04:53.242Z,998.71
2017-05-20T08:05:53.271Z,998.7
2017-05-20T08:06:53.299Z,998.71
2017-05-20T08:07:53.324Z,998.7
2017-05-20T08:08:53.353Z,998.77
2017-05-20T08:09:53.382Z,998.75
2017-05-20T08:10:53.404Z,998.68
2017-05-20T08:11:53.433Z,998.72
2017-05-20T08:12:53.463Z,998.69
2017-05-20T08:13:53.489Z,998.75
2017-05-20T08:14:53.517Z,998.73
2017-05-20T08:15:53.547Z,998.72
2017-05-20T08:16:53.570Z,998.73
2017-05-20T08:17:53.600Z,998.69
2017-05-20T08:18:53.625Z,998.72
2017-05-20T08:19:53.653Z,998.68
2017-05-20T08:20:53.683Z,998.68
2017-05-20T08:21:53.706Z,998.68
2017-05-20T08:22:53.732Z,998.7
2017-05-20T08:23:53.763Z,998.69
2017-05-20T08:24:53.790Z,998.7
2017-05-20T08:25:53.818Z,998.72
2017-05-20T08:26:53.843Z,998.76
2017-05-20T08:27:53.867Z,998.8
2017-05-20T08:28:53.898Z,998.79
2017-05-20T08:29:53.925Z,998.76
2017-05-20T08:30:53.954Z,998.78
2017-05-20T08:31:53.982Z,998.81
2017-05-20T08:32:54.012Z,998.82
2017-05-20T08:33:54.036Z,998.86
2017-05-20T08:34:54.070Z,998.85
2017-05-20T08:35:54.089Z,998.89
2017-05-20T08:36:54.119Z,998.91
2017-05-20T08:37:54.143Z,998.92
2017-05-20T08:38:54.172Z,998.94
2017-05-20T08:39:54.201Z,998.91
2017-05-20T08:40:54.225Z,998.98
2017-05-20T08:41:54.255Z,998.97
2017-05-20T08:42:54.283Z,998.98
2017-05-20T08:43:54.309Z,998.96
2017-05-20T08:44:54.337Z,998.94
2017-05-20T08:45:54.364Z,999
2017-05-20T08:46:54.388Z,999.03
2017-05-20T08:47:54.416Z,999.05
2017-05-20T08:48:54.448Z,999.05
2017-05-20T08:49:54.468Z,999.04
2017-05-20T08:50:54.502Z,999.1
2017-05-20T08:51:54.530Z,999.13
2017-05-20T08:52:54.554Z,999.18
2017-05-20T08:53:54.585Z,999.16
2017-05-20T08:54:54.613Z,999.14
2017-05-20T08:55:54.638Z,999.18
2017-05-20T08:56:54.666Z,999.12
2017-05-20T08:57:54.689Z,999.14
2017-05-20T08:58:54.719Z,999.15
2017-05-20T08:59:54.749Z,999.2
2017-05-20T09:00:54.777Z,999.23
2017-05-20T09:01:55.002Z,999.2
2017-05-20T09:02:54.828Z,999.21
2017-05-20T09:03:54.860Z,999.25
2017-05-20T09:04:54.888Z,999.19
2017-05-20T09:05:54.913Z,999.23
2017-05-20T09:06:55.193Z,999.27
2017-05-20T09:07:54.967Z,999.32
2017-05-20T09:08:54.996Z,999.34
2017-05-20T09:09:55.025Z,999.35
2017-05-20T09:10:55.053Z,999.31
2017-05-20T09:11:55.078Z,999.3
2017-05-20T09:12:55.108Z,999.32
2017-05-20T09:13:55.137Z,999.29
2017-05-20T09:14:55.163Z,999.31
2017-05-20T09:15:55.191Z,999.29
2017-05-20T09:16:55.218Z,999.3
2017-05-20T09:17:55.243Z,999.33
2017-05-20T09:18:55.272Z,999.32
2017-05-20T09:19:55.300Z,999.4
2017-05-20T09:20:55.329Z,999.36
2017-05-20T09:21:55.392Z,999.38
2017-05-20T09:22:55.382Z,999.34
2017-05-20T09:23:55.412Z,999.37
2017-05-20T09:24:55.441Z,999.35
2017-05-20T09:25:55.467Z,999.37
2017-05-20T09:26:55.495Z,999.36
2017-05-20T09:27:55.527Z,999.38
2017-05-20T09:28:55.550Z,999.35
2017-05-20T09:29:55.576Z,999.4
2017-05-20T09:30:55.605Z,999.35
2017-05-20T09:31:55.633Z,999.41
2017-05-20T09:32:55.661Z,999.43
2017-05-20T09:33:55.689Z,999.46
2017-05-20T09:34:55.717Z,999.45
2017-05-20T09:35:55.744Z,999.5
2017-05-20T09:36:55.769Z,999.48
2017-05-20T09:37:55.798Z,999.51
2017-05-20T09:38:55.823Z,999.5
2017-05-20T09:39:55.858Z,999.56
2017-05-20T09:40:55.880Z,999.57
2017-05-20T09:41:55.910Z,999.56
2017-05-20T09:42:55.934Z,999.56
2017-05-20T09:43:55.968Z,999.54
2017-05-20T09:44:55.999Z,999.45
2017-05-20T09:45:56.021Z,999.5
2017-05-20T09:46:56.049Z,999.54
2017-05-20T09:47:56.075Z,999.51
2017-05-20T09:48:56.103Z,999.51
2017-05-20T09:49:56.132Z,999.56
2017-05-20T09:50:56.161Z,999.53
2017-05-20T09:51:56.189Z,999.49
2017-05-20T09:52:56.218Z,999.51
2017-05-20T09:53:56.242Z,999.54
2017-05-20T09:54:56.272Z,999.52
2017-05-20T09:55:56.298Z,999.55
2017-05-20T09:56:56.325Z,999.61
2017-05-20T09:57:56.349Z,999.6
2017-05-20T09:58:56.383Z,999.59
2017-05-20T09:59:56.408Z,999.59
2017-05-20T10:00:56.438Z,999.58
2017-05-20T10:01:56.464Z,999.58
2017-05-20T10:02:56.490Z,999.62
2017-05-20T10:03:56.519Z,999.6
2017-05-20T10:04:56.549Z,999.56
2017-05-20T10:05:56.577Z,999.59
2017-05-20T10:06:56.606Z,999.59
2017-05-20T10:07:56.625Z,999.58
2017-05-20T10:08:56.659Z,999.61
2017-05-20T10:09:56.687Z,999.59
2017-05-20T10:10:56.711Z,999.63
2017-05-20T10:11:56.740Z,999.62
2017-05-20T10:12:56.768Z,999.67
2017-05-20T10:13:56.794Z,999.64
2017-05-20T10:14:56.824Z,999.62
2017-05-20T10:15:56.855Z,999.57
2017-05-20T10:16:56.883Z,999.59
2017-05-20T10:17:56.911Z,999.59
2017-05-20T10:18:56.936Z,999.63
2017-05-20T10:19:56.963Z,999.63
2017-05-20T10:20:56.992Z,999.63
2017-05-20T10:21:57.021Z,999.63
2017-05-20T10:22:57.043Z,999.65
2017-05-20T10:23:57.077Z,999.66
2017-05-20T10:24:57.103Z,999.62
2017-05-20T10:25:57.133Z,999.62
2017-05-20T10:26:57.156Z,999.62
2017-05-20T10:27:57.182Z,999.61
2017-05-20T10:28:57.215Z,999.65
2017-05-20T10:29:57.244Z,999.63
2017-05-20T10:30:57.268Z,999.68
2017-05-20T10:31:57.297Z,999.67
2017-05-20T10:32:57.337Z,999.69
2017-05-20T10:33:57.354Z,999.7
2017-05-20T10:34:57.380Z,999.72
2017-05-20T10:35:57.408Z,999.71
2017-05-20T10:36:57.436Z,999.74
2017-05-20T10:37:57.461Z,999.74
2017-05-20T10:38:57.494Z,999.77
2017-05-20T10:39:57.520Z,999.72
2017-05-20T10:40:57.549Z,999.73
2017-05-20T10:41:57.577Z,999.75
2017-05-20T10:42:57.859Z,999.85
2017-05-20T10:43:57.634Z,999.84
2017-05-20T10:44:57.651Z,999.9
2017-05-20T10:45:57.687Z,999.88
2017-05-20T10:46:57.716Z,999.84
2017-05-20T10:47:57.938Z,999.83
2017-05-20T10:48:57.770Z,999.8
2017-05-20T10:49:57.801Z,999.77
2017-05-20T10:50:57.827Z,999.81
2017-05-20T10:51:57.853Z,999.85
2017-05-20T10:52:58.133Z,999.86
2017-05-20T10:53:57.911Z,999.85
2017-05-20T10:54:57.939Z,999.88
2017-05-20T10:55:57.968Z,999.88
2017-05-20T10:56:57.992Z,999.87
2017-05-20T10:57:58.017Z,999.8
2017-05-20T10:58:58.051Z,999.84
2017-05-20T10:59:58.079Z,999.84
2017-05-20T11:00:58.108Z,999.83
2017-05-20T11:01:58.136Z,999.78
2017-05-20T11:02:58.162Z,999.8
2017-05-20T11:03:58.191Z,999.83
2017-05-20T11:04:58.220Z,999.84
2017-05-20T11:05:58.249Z,999.84
2017-05-20T11:06:58.273Z,999.82
2017-05-20T11:07:58.302Z,999.86
2017-05-20T11:08:58.331Z,999.92
2017-05-20T11:09:58.359Z,999.89
2017-05-20T11:10:58.387Z,999.85
2017-05-20T11:11:58.412Z,999.88
2017-05-20T11:12:58.441Z,999.9
2017-05-20T11:13:58.469Z,999.93
2017-05-20T11:14:58.499Z,999.93
2017-05-20T11:15:58.527Z,999.93
2017-05-20T11:16:58.557Z,999.96
2017-05-20T11:17:58.581Z,999.96
2017-05-20T11:18:58.608Z,999.95
2017-05-20T11:19:58.638Z,999.97
2017-05-20T11:20:58.664Z,1000
2017-05-20T11:21:58.696Z,1000.01
2017-05-20T11:22:58.720Z,999.97
2017-05-20T11:23:58.749Z,999.99
2017-05-20T11:24:58.778Z,1000.04
2017-05-20T11:25:58.809Z,1000.03
2017-05-20T11:26:58.832Z,1000.06
2017-05-20T11:27:58.861Z,1000.02
2017-05-20T11:28:58.890Z,1000.06
2017-05-20T11:29:58.919Z,1000.05
2017-05-20T11:30:58.946Z,1000.11
2017-05-20T11:31:58.968Z,1000.09
2017-05-20T11:32:59.002Z,1000.1
2017-05-20T11:33:59.029Z,1000.1
2017-05-20T11:34:59.059Z,1000.12
2017-05-20T11:35:59.088Z,1000.12
2017-05-20T11:36:59.110Z,1000.16
2017-05-20T11:37:59.142Z,1000.09
2017-05-20T11:38:59.174Z,1000.15
2017-05-20T11:39:59.197Z,1000.21
2017-05-20T11:40:59.228Z,1000.27
2017-05-20T11:41:59.249Z,1000.15
2017-05-20T11:42:59.286Z,1000.11
2017-05-20T11:43:59.309Z,1000.07
2017-05-20T11:44:59.338Z,1000.08
2017-05-20T11:45:59.361Z,1000.03
2017-05-20T11:46:59.391Z,1000.02
2017-05-20T11:47:59.425Z,1000
2017-05-20T11:48:59.453Z,1000.03
2017-05-20T11:49:59.479Z,1000.03
2017-05-20T11:50:59.507Z,1000.06
2017-05-20T11:51:59.531Z,1000.1
2017-05-20T11:52:59.565Z,1000.09
2017-05-20T11:53:59.592Z,1000.11
2017-05-20T11:54:59.622Z,1000.1
2017-05-20T11:55:59.652Z,1000.11
2017-05-20T11:56:59.681Z,1000.12
2017-05-20T11:57:59.708Z,1000.12
2017-05-20T11:58:59.738Z,1000.11
2017-05-20T11:59:59.767Z,1000.13
2017-05-20T12:00:59.791Z,1000.11
2017-05-20T12:01:59.820Z,1000.17
2017-05-20T12:02:59.850Z,1000.19
2017-05-20T12:03:59.879Z,1000.14
2017-05-20T12:04:59.907Z,1000.17
2017-05-20T12:05:59.931Z,1000.19
2017-05-20T12:06:59.963Z,1000.15
2017-05-20T12:07:59.992Z,1000.21
2017-05-20T12:09:00.017Z,1000.18
2017-05-20T12:10:00.046Z,1000.23
2017-05-20T12:11:00.070Z,1000.19
2017-05-20T12:12:00.104Z,1000.24
2017-05-20T12:13:00.132Z,1000.22
2017-05-20T12:14:00.162Z,1000.25
2017-05-20T12:15:00.184Z,1000.26
2017-05-20T12:16:00.211Z,1000.25
2017-05-20T12:17:00.248Z,1000.26
2017-05-20T12:18:00.274Z,1000.32
2017-05-20T12:19:00.301Z,1000.28
2017-05-20T12:20:00.326Z,1000.33
2017-05-20T12:21:00.364Z,1000.34
2017-05-20T12:22:00.385Z,1000.31
2017-05-20T12:23:00.413Z,1000.33
2017-05-20T12:24:00.440Z,1000.36
2017-05-20T12:25:00.466Z,1000.39
2017-05-20T12:26:00.495Z,1000.36
2017-05-20T12:27:00.523Z,1000.39
2017-05-20T12:28:00.551Z,1000.44
2017-05-20T12:29:00.578Z,1000.41
2017-05-20T12:30:00.605Z,1000.42